sensor_id;sensor_type;location;lat;lon;timestamp;pressure;altitude;pressure_sealevel;temperature;humidity
18784;BME280;9520;50.954;6.968;2023-04-01T00:00:17;98880.78;;;18.15;44.46
18784;BME280;9520;50.954;6.968;2023-04-01T00:00:39;98888.00;;;18.25;44.27
18784;BME280;9520;50.954;6.968;2023-04-01T00:01:02;98882.66;;;18.25;43.98
18784;BME280;9520;50.954;6.968;2023-04-01T00:01:25;98885.94;;;18.29;44.11
18784;BME280;9520;50.954;6.968;2023-04-01T00:01:47;98899.19;;;18.30;44.28
18784;BME280;9520;50.954;6.968;2023-04-01T00:02:09;98899.69;;;18.11;44.28
18784;BME280;9520;50.954;6.968;2023-04-01T00:02:31;98891.50;;;18.02;44.20
18784;BME280;9520;50.954;6.968;2023-04-01T00:02:53;98888.97;;;18.00;44.24
18784;BME280;9520;50.954;6.968;2023-04-01T00:03:16;98871.53;;;17.84;44.48
18784;BME280;9520;50.954;6.968;2023-04-01T00:03:38;98890.16;;;17.96;44.41
18784;BME280;9520;50.954;6.968;2023-04-01T00:04:00;98895.44;;;17.85;44.44
18784;BME280;9520;50.954;6.968;2023-04-01T00:04:23;98884.13;;;17.82;44.52
18784;BME280;9520;50.954;6.968;2023-04-01T00:04:46;98886.84;;;17.93;44.42
18784;BME280;9520;50.954;6.968;2023-04-01T00:05:08;98891.25;;;17.94;44.36
18784;BME280;9520;50.954;6.968;2023-04-01T00:05:31;98886.75;;;17.94;44.71
18784;BME280;9520;50.954;6.968;2023-04-01T00:05:54;98880.16;;;17.87;44.33
18784;BME280;9520;50.954;6.968;2023-04-01T00:06:18;98884.59;;;17.99;44.32
18784;BME280;9520;50.954;6.968;2023-04-01T00:06:39;98885.22;;;18.03;44.19
18784;BME280;9520;50.954;6.968;2023-04-01T00:07:03;98897.53;;;17.93;44.28
18784;BME280;9520;50.954;6.968;2023-04-01T00:07:25;98890.09;;;17.85;44.33
18784;BME280;9520;50.954;6.968;2023-04-01T00:07:51;98892.44;;;17.90;44.38
18784;BME280;9520;50.954;6.968;2023-04-01T00:08:13;98891.34;;;17.92;44.40
18784;BME280;9520;50.954;6.968;2023-04-01T00:08:35;98891.84;;;17.97;44.17
18784;BME280;9520;50.954;6.968;2023-04-01T00:08:57;98897.81;;;18.01;44.18
18784;BME280;9520;50.954;6.968;2023-04-01T00:09:19;98894.19;;;18.02;44.31
18784;BME280;9520;50.954;6.968;2023-04-01T00:09:41;98871.13;;;18.01;44.27
18784;BME280;9520;50.954;6.968;2023-04-01T00:10:04;98882.94;;;18.09;44.06
18784;BME280;9520;50.954;6.968;2023-04-01T00:10:26;98878.13;;;18.15;44.38
18784;BME280;9520;50.954;6.968;2023-04-01T00:10:48;98889.41;;;18.18;44.27
18784;BME280;9520;50.954;6.968;2023-04-01T00:11:11;98887.50;;;18.20;44.19
18784;BME280;9520;50.954;6.968;2023-04-01T00:11:32;98882.88;;;18.22;43.82
18784;BME280;9520;50.954;6.968;2023-04-01T00:11:55;98890.88;;;18.22;43.91
18784;BME280;9520;50.954;6.968;2023-04-01T00:12:17;98882.41;;;18.28;43.79
18784;BME280;9520;50.954;6.968;2023-04-01T00:12:39;98886.16;;;18.26;43.81
18784;BME280;9520;50.954;6.968;2023-04-01T00:13:01;98886.41;;;18.23;43.98
18784;BME280;9520;50.954;6.968;2023-04-01T00:13:23;98884.53;;;18.12;43.99
18784;BME280;9520;50.954;6.968;2023-04-01T00:13:47;98892.59;;;18.23;44.17
18784;BME280;9520;50.954;6.968;2023-04-01T00:14:11;98878.00;;;18.16;44.03
18784;BME280;9520;50.954;6.968;2023-04-01T00:14:33;98883.97;;;18.20;43.99
18784;BME280;9520;50.954;6.968;2023-04-01T00:14:56;98887.16;;;18.25;44.16
18784;BME280;9520;50.954;6.968;2023-04-01T00:15:19;98889.31;;;18.20;44.07
18784;BME280;9520;50.954;6.968;2023-04-01T00:15:42;98864.47;;;18.06;43.75
18784;BME280;9520;50.954;6.968;2023-04-01T00:16:05;98883.31;;;18.16;43.80
18784;BME280;9520;50.954;6.968;2023-04-01T00:16:41;98891.84;;;18.21;43.64
18784;BME280;9520;50.954;6.968;2023-04-01T00:17:03;98880.97;;;18.00;43.88
18784;BME280;9520;50.954;6.968;2023-04-01T00:17:25;98871.44;;;17.85;44.10
18784;BME280;9520;50.954;6.968;2023-04-01T00:17:47;98883.94;;;17.96;44.35
18784;BME280;9520;50.954;6.968;2023-04-01T00:18:09;98891.91;;;17.85;44.17
18784;BME280;9520;50.954;6.968;2023-04-01T00:18:31;98885.22;;;17.79;44.23
18784;BME280;9520;50.954;6.968;2023-04-01T00:18:53;98881.25;;;17.85;44.30
18784;BME280;9520;50.954;6.968;2023-04-01T00:19:15;98877.50;;;17.87;44.17
18784;BME280;9520;50.954;6.968;2023-04-01T00:19:37;98889.53;;;17.93;44.11
18784;BME280;9520;50.954;6.968;2023-04-01T00:19:59;98881.63;;;17.91;44.27
18784;BME280;9520;50.954;6.968;2023-04-01T00:20:21;98889.53;;;17.93;44.22
18784;BME280;9520;50.954;6.968;2023-04-01T00:20:44;98879.88;;;17.79;44.37
18784;BME280;9520;50.954;6.968;2023-04-01T00:21:06;98883.75;;;17.62;44.71
18784;BME280;9520;50.954;6.968;2023-04-01T00:21:28;98889.63;;;17.67;44.95
18784;BME280;9520;50.954;6.968;2023-04-01T00:21:50;98874.91;;;17.62;45.09
18784;BME280;9520;50.954;6.968;2023-04-01T00:22:14;98880.91;;;17.65;44.92
18784;BME280;9520;50.954;6.968;2023-04-01T00:22:38;98883.00;;;17.73;44.73
18784;BME280;9520;50.954;6.968;2023-04-01T00:22:59;98886.66;;;17.59;44.95
18784;BME280;9520;50.954;6.968;2023-04-01T00:23:21;98887.09;;;17.66;44.68
18784;BME280;9520;50.954;6.968;2023-04-01T00:23:43;98880.78;;;17.54;44.81
18784;BME280;9520;50.954;6.968;2023-04-01T00:24:06;98881.50;;;17.56;44.97
18784;BME280;9520;50.954;6.968;2023-04-01T00:24:28;98893.56;;;17.62;44.86
18784;BME280;9520;50.954;6.968;2023-04-01T00:24:49;98883.31;;;17.68;44.49
18784;BME280;9520;50.954;6.968;2023-04-01T00:25:11;98885.38;;;17.65;44.69
18784;BME280;9520;50.954;6.968;2023-04-01T00:25:33;98886.00;;;17.68;44.93
18784;BME280;9520;50.954;6.968;2023-04-01T00:25:56;98880.94;;;17.77;44.48
18784;BME280;9520;50.954;6.968;2023-04-01T00:26:18;98881.69;;;17.79;44.75
18784;BME280;9520;50.954;6.968;2023-04-01T00:26:42;98885.22;;;17.79;44.74
18784;BME280;9520;50.954;6.968;2023-04-01T00:27:06;98877.22;;;17.79;44.74
18784;BME280;9520;50.954;6.968;2023-04-01T00:27:29;98892.44;;;17.90;44.51
18784;BME280;9520;50.954;6.968;2023-04-01T00:27:51;98884.09;;;17.94;44.35
18784;BME280;9520;50.954;6.968;2023-04-01T00:28:12;98881.06;;;17.99;44.57
18784;BME280;9520;50.954;6.968;2023-04-01T00:28:35;98886.59;;;17.85;44.61
18784;BME280;9520;50.954;6.968;2023-04-01T00:28:58;98883.50;;;17.78;44.41
18784;BME280;9520;50.954;6.968;2023-04-01T00:29:19;98888.03;;;17.65;44.71
18784;BME280;9520;50.954;6.968;2023-04-01T00:29:42;98878.56;;;17.61;44.93
18784;BME280;9520;50.954;6.968;2023-04-01T00:30:05;98878.84;;;17.69;44.92
18784;BME280;9520;50.954;6.968;2023-04-01T00:30:27;98882.56;;;17.79;44.64
18784;BME280;9520;50.954;6.968;2023-04-01T00:30:49;98885.50;;;17.87;44.73
18784;BME280;9520;50.954;6.968;2023-04-01T00:31:11;98887.19;;;17.88;44.64
18784;BME280;9520;50.954;6.968;2023-04-01T00:31:34;98878.84;;;17.69;44.85
18784;BME280;9520;50.954;6.968;2023-04-01T00:31:56;98881.28;;;17.72;44.79
18784;BME280;9520;50.954;6.968;2023-04-01T00:32:18;98883.59;;;17.77;44.78
18784;BME280;9520;50.954;6.968;2023-04-01T00:32:39;98877.22;;;17.79;44.84
18784;BME280;9520;50.954;6.968;2023-04-01T00:33:03;98881.97;;;17.87;44.82
18784;BME280;9520;50.954;6.968;2023-04-01T00:33:25;98877.91;;;17.94;44.68
18784;BME280;9520;50.954;6.968;2023-04-01T00:33:46;98877.78;;;17.95;44.28
18784;BME280;9520;50.954;6.968;2023-04-01T00:34:08;98853.22;;;17.79;44.42
18784;BME280;9520;50.954;6.968;2023-04-01T00:34:31;98870.16;;;18.02;44.28
18784;BME280;9520;50.954;6.968;2023-04-01T00:34:53;98882.38;;;17.93;44.51
18784;BME280;9520;50.954;6.968;2023-04-01T00:35:15;98883.28;;;17.81;44.61
18784;BME280;9520;50.954;6.968;2023-04-01T00:35:37;98878.16;;;17.78;44.48
18784;BME280;9520;50.954;6.968;2023-04-01T00:36:05;98879.31;;;17.87;44.45
18784;BME280;9520;50.954;6.968;2023-04-01T00:37:00;98886.19;;;17.78;44.67
18784;BME280;9520;50.954;6.968;2023-04-01T00:37:23;98889.25;;;17.85;44.53
18784;BME280;9520;50.954;6.968;2023-04-01T00:37:45;98895.53;;;17.60;45.01
18784;BME280;9520;50.954;6.968;2023-04-01T00:38:08;98873.41;;;17.58;45.03
18784;BME280;9520;50.954;6.968;2023-04-01T00:38:32;98876.41;;;17.66;44.95
18784;BME280;9520;50.954;6.968;2023-04-01T00:38:54;98877.31;;;17.78;44.59
18784;BME280;9520;50.954;6.968;2023-04-01T00:39:18;98877.22;;;17.79;44.61
18784;BME280;9520;50.954;6.968;2023-04-01T00:39:40;98878.34;;;17.88;44.59
18784;BME280;9520;50.954;6.968;2023-04-01T00:40:02;98886.13;;;17.91;44.50
18784;BME280;9520;50.954;6.968;2023-04-01T00:40:27;98879.28;;;17.63;45.00
18784;BME280;9520;50.954;6.968;2023-04-01T00:40:49;98880.38;;;17.60;44.87
18784;BME280;9520;50.954;6.968;2023-04-01T00:41:17;98886.38;;;17.39;45.14
18784;BME280;9520;50.954;6.968;2023-04-01T00:41:40;98875.63;;;17.27;45.63
18784;BME280;9520;50.954;6.968;2023-04-01T00:42:03;98888.41;;;17.35;45.46
18784;BME280;9520;50.954;6.968;2023-04-01T00:42:25;98872.00;;;17.28;46.26
18784;BME280;9520;50.954;6.968;2023-04-01T00:42:47;98881.41;;;17.21;45.95
18784;BME280;9520;50.954;6.968;2023-04-01T00:43:11;98880.22;;;17.25;46.07
18784;BME280;9520;50.954;6.968;2023-04-01T00:43:34;98883.19;;;17.34;45.83
18784;BME280;9520;50.954;6.968;2023-04-01T00:44:15;98877.59;;;17.49;45.35
18784;BME280;9520;50.954;6.968;2023-04-01T00:44:40;98881.84;;;17.52;45.26
18784;BME280;9520;50.954;6.968;2023-04-01T00:45:25;98871.31;;;17.50;45.38
18784;BME280;9520;50.954;6.968;2023-04-01T00:45:48;98882.91;;;17.62;45.26
18784;BME280;9520;50.954;6.968;2023-04-01T00:46:11;98876.00;;;17.59;45.49
18784;BME280;9520;50.954;6.968;2023-04-01T00:46:33;98877.25;;;17.66;45.19
18784;BME280;9520;50.954;6.968;2023-04-01T00:46:57;98868.28;;;17.67;45.50
18784;BME280;9520;50.954;6.968;2023-04-01T00:47:19;98862.75;;;17.58;45.15
18784;BME280;9520;50.954;6.968;2023-04-01T00:47:41;98877.03;;;17.69;44.84
18784;BME280;9520;50.954;6.968;2023-04-01T00:48:06;98878.97;;;17.55;45.15
18784;BME280;9520;50.954;6.968;2023-04-01T00:48:30;98879.44;;;17.36;45.53
18784;BME280;9520;50.954;6.968;2023-04-01T00:48:56;98871.84;;;17.43;45.49
18784;BME280;9520;50.954;6.968;2023-04-01T00:49:21;98867.38;;;17.43;45.64
18784;BME280;9520;50.954;6.968;2023-04-01T00:49:45;98873.03;;;17.51;45.58
18784;BME280;9520;50.954;6.968;2023-04-01T00:50:08;98872.28;;;17.49;45.48
18784;BME280;9520;50.954;6.968;2023-04-01T00:50:30;98864.59;;;17.45;45.28
18784;BME280;9520;50.954;6.968;2023-04-01T00:50:56;98875.28;;;17.45;45.79
18784;BME280;9520;50.954;6.968;2023-04-01T00:51:23;98880.88;;;17.53;45.50
18784;BME280;9520;50.954;6.968;2023-04-01T00:51:47;98877.81;;;17.59;45.05
18784;BME280;9520;50.954;6.968;2023-04-01T00:52:13;98877.72;;;17.60;45.32
18784;BME280;9520;50.954;6.968;2023-04-01T00:52:37;98878.03;;;17.56;45.34
18784;BME280;9520;50.954;6.968;2023-04-01T00:53:00;98855.66;;;17.46;45.62
18784;BME280;9520;50.954;6.968;2023-04-01T00:53:22;98877.50;;;17.51;45.21
18784;BME280;9520;50.954;6.968;2023-04-01T00:53:48;98868.97;;;17.46;45.42
18784;BME280;9520;50.954;6.968;2023-04-01T00:54:11;98873.66;;;17.55;45.59
18784;BME280;9520;50.954;6.968;2023-04-01T00:54:35;98875.16;;;17.59;45.44
18784;BME280;9520;50.954;6.968;2023-04-01T00:54:59;98875.78;;;17.50;45.56
18784;BME280;9520;50.954;6.968;2023-04-01T00:55:23;98863.94;;;17.54;45.47
18784;BME280;9520;50.954;6.968;2023-04-01T00:55:53;98865.84;;;17.52;45.71
18784;BME280;9520;50.954;6.968;2023-04-01T00:56:20;98850.66;;;17.41;45.32
18784;BME280;9520;50.954;6.968;2023-04-01T00:56:48;98868.31;;;17.42;45.61
18784;BME280;9520;50.954;6.968;2023-04-01T00:57:16;98867.91;;;17.48;45.32
18784;BME280;9520;50.954;6.968;2023-04-01T00:57:42;98856.81;;;17.42;45.50
18784;BME280;9520;50.954;6.968;2023-04-01T00:58:07;98848.72;;;17.43;45.28
18784;BME280;9520;50.954;6.968;2023-04-01T00:58:35;98873.03;;;17.51;45.38
18784;BME280;9520;50.954;6.968;2023-04-01T00:59:00;98864.50;;;17.59;45.19
18784;BME280;9520;50.954;6.968;2023-04-01T00:59:24;98869.03;;;17.57;45.08
18784;BME280;9520;50.954;6.968;2023-04-01T00:59:48;98860.94;;;17.58;45.49
18784;BME280;9520;50.954;6.968;2023-04-01T01:00:14;98871.31;;;17.50;45.38
18784;BME280;9520;50.954;6.968;2023-04-01T01:00:37;98865.41;;;17.58;45.42
18784;BME280;9520;50.954;6.968;2023-04-01T01:01:00;98877.25;;;17.66;45.17
18784;BME280;9520;50.954;6.968;2023-04-01T01:01:23;98857.84;;;17.64;45.44
18784;BME280;9520;50.954;6.968;2023-04-01T01:01:47;98875.66;;;17.64;45.15
18784;BME280;9520;50.954;6.968;2023-04-01T01:02:11;98865.28;;;17.72;44.93
18784;BME280;9520;50.954;6.968;2023-04-01T01:02:34;98866.56;;;17.79;45.06
18784;BME280;9520;50.954;6.968;2023-04-01T01:02:56;98867.78;;;17.86;44.89
18784;BME280;9520;50.954;6.968;2023-04-01T01:03:18;98872.66;;;17.92;44.68
18784;BME280;9520;50.954;6.968;2023-04-01T01:03:41;98855.94;;;17.90;44.95
18784;BME280;9520;50.954;6.968;2023-04-01T01:04:03;98863.25;;;17.99;44.96
18784;BME280;9520;50.954;6.968;2023-04-01T01:04:27;98863.78;;;18.04;45.02
18784;BME280;9520;50.954;6.968;2023-04-01T01:04:49;98865.34;;;18.07;44.99
18784;BME280;9520;50.954;6.968;2023-04-01T01:05:12;98862.22;;;18.13;44.92
18784;BME280;9520;50.954;6.968;2023-04-01T01:05:46;98869.63;;;18.09;44.72
18784;BME280;9520;50.954;6.968;2023-04-01T01:06:24;98871.44;;;18.09;44.17
18784;BME280;9520;50.954;6.968;2023-04-01T01:06:53;98866.09;;;18.09;44.49
18784;BME280;9520;50.954;6.968;2023-04-01T01:07:24;98859.22;;;17.94;44.82
18784;BME280;9520;50.954;6.968;2023-04-01T01:07:54;98866.44;;;18.04;44.38
18784;BME280;9520;50.954;6.968;2023-04-01T01:08:29;98866.78;;;18.00;44.32
18784;BME280;9520;50.954;6.968;2023-04-01T01:09:09;98871.47;;;17.73;44.98
18784;BME280;9520;50.954;6.968;2023-04-01T01:09:38;98865.75;;;17.66;44.88
18784;BME280;9520;50.954;6.968;2023-04-01T01:10:08;98846.69;;;17.59;44.80
18784;BME280;9520;50.954;6.968;2023-04-01T01:10:33;98869.03;;;17.57;45.14
18784;BME280;9520;50.954;6.968;2023-04-01T01:10:56;98866.84;;;17.51;45.05
18784;BME280;9520;50.954;6.968;2023-04-01T01:11:24;98854.66;;;17.47;45.23
18784;BME280;9520;50.954;6.968;2023-04-01T01:12:04;98871.00;;;17.42;45.66
18784;BME280;9520;50.954;6.968;2023-04-01T01:12:33;98857.84;;;17.52;45.35
18784;BME280;9520;50.954;6.968;2023-04-01T01:13:04;98864.25;;;17.62;45.24
18784;BME280;9520;50.954;6.968;2023-04-01T01:13:33;98861.03;;;17.69;45.15
18784;BME280;9520;50.954;6.968;2023-04-01T01:14:01;98865.78;;;17.77;44.54
18784;BME280;9520;50.954;6.968;2023-04-01T01:14:39;98862.69;;;17.83;44.71
18784;BME280;9520;50.954;6.968;2023-04-01T01:15:10;98871.66;;;17.82;44.95
18784;BME280;9520;50.954;6.968;2023-04-01T01:15:39;98866.56;;;17.79;44.60
18784;BME280;9520;50.954;6.968;2023-04-01T01:16:09;98870.94;;;17.80;45.00
18784;BME280;9520;50.954;6.968;2023-04-01T01:16:39;98859.28;;;17.81;44.82
18784;BME280;9520;50.954;6.968;2023-04-01T01:17:12;98867.22;;;17.94;44.88
18784;BME280;9520;50.954;6.968;2023-04-01T01:17:45;98851.94;;;17.96;44.79
18784;BME280;9520;50.954;6.968;2023-04-01T01:18:15;98868.19;;;17.93;44.94
18784;BME280;9520;50.954;6.968;2023-04-01T01:18:48;98866.63;;;17.90;44.64
18784;BME280;9520;50.954;6.968;2023-04-01T01:19:26;98864.50;;;17.83;44.38
18784;BME280;9520;50.954;6.968;2023-04-01T01:21:30;98867.91;;;17.85;44.41
18784;BME280;9520;50.954;6.968;2023-04-01T01:23:00;98855.38;;;17.74;44.56
18784;BME280;9520;50.954;6.968;2023-04-01T01:24:43;98869.78;;;17.95;44.48
18784;BME280;9520;50.954;6.968;2023-04-01T01:25:21;98861.03;;;17.69;44.80
18784;BME280;9520;50.954;6.968;2023-04-01T01:25:55;98863.97;;;17.78;44.44
18784;BME280;9520;50.954;6.968;2023-04-01T01:26:33;98848.84;;;17.78;44.66
18784;BME280;9520;50.954;6.968;2023-04-01T01:27:03;98862.44;;;17.86;44.80
18784;BME280;9520;50.954;6.968;2023-04-01T01:27:26;98866.47;;;17.92;44.59
18784;BME280;9520;50.954;6.968;2023-04-01T01:27:58;98867.69;;;17.88;44.40
18784;BME280;9520;50.954;6.968;2023-04-01T01:28:32;98855.59;;;17.95;44.33
18784;BME280;9520;50.954;6.968;2023-04-01T01:29:04;98857.78;;;18.01;44.05
18784;BME280;9520;50.954;6.968;2023-04-01T01:29:45;98828.53;;;17.88;44.09
18784;BME280;9520;50.954;6.968;2023-04-01T01:30:21;98856.66;;;17.92;44.23
18784;BME280;9520;50.954;6.968;2023-04-01T01:30:52;98857.06;;;17.99;44.38
18784;BME280;9520;50.954;6.968;2023-04-01T01:31:20;98857.06;;;17.99;44.34
18784;BME280;9520;50.954;6.968;2023-04-01T01:31:50;98858.19;;;18.07;43.93
18784;BME280;9520;50.954;6.968;2023-04-01T01:32:28;98860.31;;;18.15;43.96
18784;BME280;9520;50.954;6.968;2023-04-01T01:33:09;98870.84;;;18.17;44.21
18784;BME280;9520;50.954;6.968;2023-04-01T01:34:03;98865.56;;;18.28;nan
18784;BME280;9520;50.954;6.968;2023-04-01T01:34:36;98869.63;;;18.21;44.10
18784;BME280;9520;50.954;6.968;2023-04-01T01:35:20;98865.47;;;17.82;44.08
18784;BME280;9520;50.954;6.968;2023-04-01T01:35:46;98858.50;;;17.55;44.87
18784;BME280;9520;50.954;6.968;2023-04-01T01:36:13;98855.94;;;17.54;45.35
18784;BME280;9520;50.954;6.968;2023-04-01T01:36:38;98858.19;;;17.60;45.00
18784;BME280;9520;50.954;6.968;2023-04-01T01:37:08;98848.91;;;17.53;45.42
18784;BME280;9520;50.954;6.968;2023-04-01T01:37:31;98855.28;;;17.63;45.55
18784;BME280;9520;50.954;6.968;2023-04-01T01:37:56;98865.41;;;17.71;45.47
18784;BME280;9520;50.954;6.968;2023-04-01T01:38:23;98861.56;;;17.75;45.22
18784;BME280;9520;50.954;6.968;2023-04-01T01:38:52;98858.56;;;17.79;45.19
18784;BME280;9520;50.954;6.968;2023-04-01T01:39:16;98860.63;;;17.87;45.21
18784;BME280;9520;50.954;6.968;2023-04-01T01:39:39;98869.91;;;17.70;45.29
18784;BME280;9520;50.954;6.968;2023-04-01T01:40:04;98858.50;;;17.55;45.40
18784;BME280;9520;50.954;6.968;2023-04-01T01:40:29;98858.38;;;17.57;45.53
18784;BME280;9520;50.954;6.968;2023-04-01T01:40:55;98858.31;;;17.46;45.78
18784;BME280;9520;50.954;6.968;2023-04-01T01:41:20;98862.34;;;17.51;45.67
18784;BME280;9520;50.954;6.968;2023-04-01T01:41:45;98860.31;;;17.55;45.61
18784;BME280;9520;50.954;6.968;2023-04-01T01:42:14;98867.34;;;17.56;46.04
18784;BME280;9520;50.954;6.968;2023-04-01T01:42:40;98850.00;;;17.38;46.10
18784;BME280;9520;50.954;6.968;2023-04-01T01:43:07;98862.66;;;17.47;46.25
18784;BME280;9520;50.954;6.968;2023-04-01T01:43:32;98862.09;;;17.18;46.63
18784;BME280;9520;50.954;6.968;2023-04-01T01:43:56;98856.13;;;17.14;46.76
18784;BME280;9520;50.954;6.968;2023-04-01T01:44:19;98861.56;;;17.25;46.83
18784;BME280;9520;50.954;6.968;2023-04-01T01:44:44;98855.91;;;17.30;46.64
18784;BME280;9520;50.954;6.968;2023-04-01T01:45:10;98862.38;;;17.39;46.60
18784;BME280;9520;50.954;6.968;2023-04-01T01:45:35;98858.53;;;17.43;46.62
18784;BME280;9520;50.954;6.968;2023-04-01T01:46:04;98857.03;;;17.39;46.43
18784;BME280;9520;50.954;6.968;2023-04-01T01:46:27;98867.03;;;17.48;46.49
18784;BME280;9520;50.954;6.968;2023-04-01T01:46:50;98867.03;;;17.48;46.53
18784;BME280;9520;50.954;6.968;2023-04-01T01:47:13;98861.31;;;17.41;46.58
18784;BME280;9520;50.954;6.968;2023-04-01T01:47:37;98867.47;;;17.42;46.66
18784;BME280;9520;50.954;6.968;2023-04-01T01:48:01;98862.28;;;17.27;46.74
18784;BME280;9520;50.954;6.968;2023-04-01T01:48:24;98821.56;;;17.02;46.92
18784;BME280;9520;50.954;6.968;2023-04-01T01:48:49;98871.56;;;17.35;46.86
18784;BME280;9520;50.954;6.968;2023-04-01T01:49:14;98859.72;;;17.39;46.77
18784;BME280;9520;50.954;6.968;2023-04-01T01:49:37;98866.22;;;17.35;46.77
18784;BME280;9520;50.954;6.968;2023-04-01T01:50:01;98857.91;;;17.39;46.79
18784;BME280;9520;50.954;6.968;2023-04-01T01:50:26;98845.72;;;17.11;47.47
18784;BME280;9520;50.954;6.968;2023-04-01T01:50:50;98867.09;;;17.22;47.14
18784;BME280;9520;50.954;6.968;2023-04-01T01:51:13;98864.16;;;17.02;47.49
18784;BME280;9520;50.954;6.968;2023-04-01T01:51:35;98874.81;;;16.89;47.53
18784;BME280;9520;50.954;6.968;2023-04-01T01:52:00;98869.78;;;16.97;47.54
18784;BME280;9520;50.954;6.968;2023-04-01T01:52:22;98856.16;;;17.02;47.71
18784;BME280;9520;50.954;6.968;2023-04-01T01:52:47;98858.94;;;17.00;47.84
18784;BME280;9520;50.954;6.968;2023-04-01T01:53:10;98859.06;;;16.86;48.32
18784;BME280;9520;50.954;6.968;2023-04-01T01:53:32;98863.97;;;16.92;48.30
18784;BME280;9520;50.954;6.968;2023-04-01T01:53:55;98858.06;;;17.00;47.85
18784;BME280;9520;50.954;6.968;2023-04-01T01:54:18;98861.81;;;17.10;47.54
18784;BME280;9520;50.954;6.968;2023-04-01T01:54:47;98866.38;;;17.20;47.53
18784;BME280;9520;50.954;6.968;2023-04-01T01:55:26;98865.38;;;17.34;47.22
18784;BME280;9520;50.954;6.968;2023-04-01T01:55:50;98860.22;;;17.44;47.41
18784;BME280;9520;50.954;6.968;2023-04-01T01:56:13;98865.13;;;17.50;47.26
18784;BME280;9520;50.954;6.968;2023-04-01T01:56:37;98862.97;;;17.55;47.41
18784;BME280;9520;50.954;6.968;2023-04-01T01:57:04;98865.25;;;17.61;47.33
18784;BME280;9520;50.954;6.968;2023-04-01T01:57:31;98859.34;;;17.56;47.01
18784;BME280;9520;50.954;6.968;2023-04-01T01:57:59;98864.38;;;17.60;46.68
18784;BME280;9520;50.954;6.968;2023-04-01T01:58:26;98858.59;;;17.54;46.74
18784;BME280;9520;50.954;6.968;2023-04-01T01:58:52;98863.53;;;17.60;46.71
18784;BME280;9520;50.954;6.968;2023-04-01T01:59:20;98847.94;;;17.54;46.54
18784;BME280;9520;50.954;6.968;2023-04-01T01:59:44;98862.47;;;17.50;46.93
18784;BME280;9520;50.954;6.968;2023-04-01T02:00:16;98864.28;;;17.49;47.17
18784;BME280;9520;50.954;6.968;2023-04-01T02:00:41;98866.59;;;17.54;46.86
18784;BME280;9520;50.954;6.968;2023-04-01T02:01:08;98862.56;;;17.61;46.93
18784;BME280;9520;50.954;6.968;2023-04-01T02:01:36;98839.09;;;17.53;46.81
18784;BME280;9520;50.954;6.968;2023-04-01T02:02:07;98858.28;;;17.58;46.80
18784;BME280;9520;50.954;6.968;2023-04-01T02:02:30;98862.97;;;17.55;46.89
18784;BME280;9520;50.954;6.968;2023-04-01T02:02:53;98846.66;;;17.47;46.61
18784;BME280;9520;50.954;6.968;2023-04-01T02:03:17;98866.59;;;17.54;46.60
18784;BME280;9520;50.954;6.968;2023-04-01T02:03:42;98860.53;;;17.52;46.92
18784;BME280;9520;50.954;6.968;2023-04-01T02:04:06;98869.72;;;17.48;46.86
18784;BME280;9520;50.954;6.968;2023-04-01T02:04:29;98863.19;;;17.52;46.83
18784;BME280;9520;50.954;6.968;2023-04-01T02:04:52;98866.19;;;17.47;46.82
18784;BME280;9520;50.954;6.968;2023-04-01T02:05:17;98859.19;;;17.46;46.56
18784;BME280;9520;50.954;6.968;2023-04-01T02:05:42;98852.84;;;17.47;46.85
18784;BME280;9520;50.954;6.968;2023-04-01T02:06:06;98870.66;;;17.59;46.81
18784;BME280;9520;50.954;6.968;2023-04-01T02:06:32;98870.97;;;17.55;47.04
18784;BME280;9520;50.954;6.968;2023-04-01T02:06:59;98870.78;;;17.45;47.29
18784;BME280;9520;50.954;6.968;2023-04-01T02:07:26;98863.66;;;17.46;47.16
18784;BME280;9520;50.954;6.968;2023-04-01T02:07:54;98866.41;;;17.44;47.24
18784;BME280;9520;50.954;6.968;2023-04-01T02:08:22;98861.53;;;17.38;47.65
18784;BME280;9520;50.954;6.968;2023-04-01T02:08:49;98866.31;;;17.46;47.45
18784;BME280;9520;50.954;6.968;2023-04-01T02:09:12;98863.50;;;17.47;47.75
18784;BME280;9520;50.954;6.968;2023-04-01T02:09:35;98868.31;;;17.55;47.57
18784;BME280;9520;50.954;6.968;2023-04-01T02:09:58;98868.06;;;17.58;48.10
18784;BME280;9520;50.954;6.968;2023-04-01T02:10:22;98867.91;;;17.48;47.84
18784;BME280;9520;50.954;6.968;2023-04-01T02:10:52;98865.97;;;17.50;47.76
18784;BME280;9520;50.954;6.968;2023-04-01T02:11:19;98861.31;;;17.41;47.83
18784;BME280;9520;50.954;6.968;2023-04-01T02:11:48;98865.03;;;17.39;47.92
18784;BME280;9520;50.954;6.968;2023-04-01T02:12:13;98856.72;;;17.43;47.70
18784;BME280;9520;50.954;6.968;2023-04-01T02:12:38;98859.38;;;17.43;48.04
18784;BME280;9520;50.954;6.968;2023-04-01T02:13:07;98868.97;;;17.46;48.15
18784;BME280;9520;50.954;6.968;2023-04-01T02:13:34;98872.56;;;17.57;47.99
18784;BME280;9520;50.954;6.968;2023-04-01T02:14:03;98860.53;;;17.52;47.89
18784;BME280;9520;50.954;6.968;2023-04-01T02:14:28;98869.88;;;17.57;47.90
18784;BME280;9520;50.954;6.968;2023-04-01T02:14:53;98878.34;;;17.51;47.96
18784;BME280;9520;50.954;6.968;2023-04-01T02:15:18;98861.03;;;17.20;48.00
18784;BME280;9520;50.954;6.968;2023-04-01T02:15:45;98861.47;;;17.14;48.06
18784;BME280;9520;50.954;6.968;2023-04-01T02:16:11;98875.00;;;17.24;48.27
18784;BME280;9520;50.954;6.968;2023-04-01T02:16:39;98860.09;;;17.21;48.29
18784;BME280;9520;50.954;6.968;2023-04-01T02:17:06;98854.44;;;17.26;48.66
18784;BME280;9520;50.954;6.968;2023-04-01T02:17:30;98876.13;;;17.33;48.70
18784;BME280;9520;50.954;6.968;2023-04-01T02:17:53;98875.41;;;17.31;48.18
18784;BME280;9520;50.954;6.968;2023-04-01T02:18:19;98864.91;;;16.91;48.50
18784;BME280;9520;50.954;6.968;2023-04-01T02:18:43;98867.97;;;16.98;48.61
18784;BME280;9520;50.954;6.968;2023-04-01T02:19:06;98872.88;;;17.04;48.46
18784;BME280;9520;50.954;6.968;2023-04-01T02:19:32;98867.44;;;17.05;48.99
18784;BME280;9520;50.954;6.968;2023-04-01T02:19:58;98864.03;;;17.03;49.28
18784;BME280;9520;50.954;6.968;2023-04-01T02:20:23;98876.50;;;17.03;49.67
18784;BME280;9520;50.954;6.968;2023-04-01T02:20:46;98870.22;;;17.04;49.40
18784;BME280;9520;50.954;6.968;2023-04-01T02:21:09;98871.81;;;17.06;49.27